sensor_id;sensor_type;location;lat;lon;timestamp;pressure;altitude;pressure_sealevel;temperature;humidity
52735;BME280;38631;47.572;10.704;2023-02-18T00:02:21;93525.09;;;7.90;81.80
52735;BME280;38631;47.572;10.704;2023-02-18T00:04:46;93508.16;;;8.12;81.52
52735;BME280;38631;47.572;10.704;2023-02-18T00:07:12;93506.06;;;8.09;81.33
52735;BME280;38631;47.572;10.704;2023-02-18T00:09:37;93516.63;;;8.24;80.71
52735;BME280;38631;47.572;10.704;2023-02-18T00:12:03;93520.34;;;8.18;81.27
52735;BME280;38631;47.572;10.704;2023-02-18T00:14:28;93507.66;;;8.25;80.74
52735;BME280;38631;47.572;10.704;2023-02-18T00:16:54;93521.94;;;8.39;80.83
52735;BME280;38631;47.572;10.704;2023-02-18T00:19:19;93510.78;;;8.37;80.88
52735;BME280;38631;47.572;10.704;2023-02-18T00:21:45;93513.72;;;8.20;80.96
52735;BME280;38631;47.572;10.704;2023-02-18T00:24:13;93515.56;;;7.99;81.55
52735;BME280;38631;47.572;10.704;2023-02-18T00:26:40;93509.50;;;7.99;81.96
52735;BME280;38631;47.572;10.704;2023-02-18T00:29:05;93509.47;;;7.89;81.72
52735;BME280;38631;47.572;10.704;2023-02-18T00:31:35;93504.72;;;7.86;82.72
52735;BME280;38631;47.572;10.704;2023-02-18T00:34:02;93507.63;;;7.84;82.86
52735;BME280;38631;47.572;10.704;2023-02-18T00:36:28;93506.03;;;7.78;82.96
52735;BME280;38631;47.572;10.704;2023-02-18T00:38:57;93510.00;;;7.75;83.02
52735;BME280;38631;47.572;10.704;2023-02-18T00:41:24;93506.59;;;7.80;82.83
52735;BME280;38631;47.572;10.704;2023-02-18T00:43:50;93497.84;;;7.74;83.18
52735;BME280;38631;47.572;10.704;2023-02-18T00:46:16;93496.78;;;7.81;83.31
52735;BME280;38631;47.572;10.704;2023-02-18T00:48:41;93486.75;;;8.08;82.33
52735;BME280;38631;47.572;10.704;2023-02-18T00:51:07;93490.97;;;8.19;81.81
52735;BME280;38631;47.572;10.704;2023-02-18T00:53:33;93483.81;;;8.10;82.71
52735;BME280;38631;47.572;10.704;2023-02-18T00:55:59;93478.53;;;8.15;82.15
52735;BME280;38631;47.572;10.704;2023-02-18T00:58:26;93484.91;;;7.98;82.67
52735;BME280;38631;47.572;10.704;2023-02-18T01:00:52;93482.25;;;7.83;83.48
52735;BME280;38631;47.572;10.704;2023-02-18T01:03:18;93480.09;;;7.65;84.04
52735;BME280;38631;47.572;10.704;2023-02-18T01:05:43;93470.59;;;7.69;84.20
52735;BME280;38631;47.572;10.704;2023-02-18T01:08:10;93468.50;;;7.61;84.49
52735;BME280;38631;47.572;10.704;2023-02-18T01:10:39;93473.78;;;7.55;84.73
52735;BME280;38631;47.572;10.704;2023-02-18T01:13:04;93465.53;;;7.42;85.34
52735;BME280;38631;47.572;10.704;2023-02-18T01:15:30;93468.97;;;7.37;85.82
52735;BME280;38631;47.572;10.704;2023-02-18T01:17:55;93466.34;;;7.42;85.00
52735;BME280;38631;47.572;10.704;2023-02-18T01:20:21;93461.84;;;7.38;85.03
52735;BME280;38631;47.572;10.704;2023-02-18T01:22:46;93459.16;;;7.17;85.47
52735;BME280;38631;47.572;10.704;2023-02-18T01:25:13;93448.34;;;7.24;85.57
52735;BME280;38631;47.572;10.704;2023-02-18T01:27:38;93453.84;;;7.07;86.88
52735;BME280;38631;47.572;10.704;2023-02-18T01:30:05;93456.16;;;6.88;88.19
52735;BME280;38631;47.572;10.704;2023-02-18T01:32:32;93448.84;;;7.05;86.99
52735;BME280;38631;47.572;10.704;2023-02-18T01:35:18;93441.19;;;7.19;86.18
52735;BME280;38631;47.572;10.704;2023-02-18T01:37:44;93437.22;;;7.06;86.84
52735;BME280;38631;47.572;10.704;2023-02-18T01:40:12;93436.16;;;7.02;87.87
52735;BME280;38631;47.572;10.704;2023-02-18T01:42:38;93445.13;;;7.06;87.33
52735;BME280;38631;47.572;10.704;2023-02-18T01:48:05;93444.09;;;7.07;87.46
52735;BME280;38631;47.572;10.704;2023-02-18T01:50:35;93439.81;;;6.96;88.20
52735;BME280;38631;47.572;10.704;2023-02-18T01:53:01;93430.59;;;7.09;87.44
52735;BME280;38631;47.572;10.704;2023-02-18T01:55:27;93438.56;;;7.29;87.01
52735;BME280;38631;47.572;10.704;2023-02-18T01:57:53;93425.34;;;7.14;87.16
52735;BME280;38631;47.572;10.704;2023-02-18T02:00:19;93425.34;;;7.24;87.13
52735;BME280;38631;47.572;10.704;2023-02-18T02:02:50;93416.88;;;7.17;87.25
52735;BME280;38631;47.572;10.704;2023-02-18T02:05:17;93419.53;;;7.17;86.70
52735;BME280;38631;47.572;10.704;2023-02-18T02:07:43;93415.06;;;7.23;86.58
52735;BME280;38631;47.572;10.704;2023-02-18T02:10:11;93411.59;;;7.12;86.94
52735;BME280;38631;47.572;10.704;2023-02-18T02:13:06;93408.72;;;7.19;86.35
52735;BME280;38631;47.572;10.704;2023-02-18T02:16:09;93412.34;;;6.92;86.95
52735;BME280;38631;47.572;10.704;2023-02-18T02:24:54;93403.75;;;6.49;89.07
52735;BME280;38631;47.572;10.704;2023-02-18T02:27:24;93406.16;;;6.56;89.30
52735;BME280;38631;47.572;10.704;2023-02-18T02:32:44;93407.94;;;6.40;89.73
52735;BME280;38631;47.572;10.704;2023-02-18T02:35:25;93403.75;;;6.49;89.35
52735;BME280;38631;47.572;10.704;2023-02-18T02:38:11;93405.09;;;6.57;88.42
52735;BME280;38631;47.572;10.704;2023-02-18T02:40:50;93405.09;;;6.57;88.34
52735;BME280;38631;47.572;10.704;2023-02-18T02:44:07;93397.16;;;6.46;88.75
52735;BME280;38631;47.572;10.704;2023-02-18T02:46:39;93397.44;;;6.50;88.50
52735;BME280;38631;47.572;10.704;2023-02-18T02:54:26;93385.81;;;6.46;88.17
52735;BME280;38631;47.572;10.704;2023-02-18T02:59:35;93385.38;;;6.12;90.33
52735;BME280;38631;47.572;10.704;2023-02-18T03:15:49;93382.09;;;5.52;92.84
52735;BME280;38631;47.572;10.704;2023-02-18T03:18:34;93380.13;;;5.74;91.36
52735;BME280;38631;47.572;10.704;2023-02-18T03:21:12;93381.97;;;5.74;91.63
52735;BME280;38631;47.572;10.704;2023-02-18T03:23:48;93368.59;;;5.85;90.29
52735;BME280;38631;47.572;10.704;2023-02-18T03:26:18;93375.78;;;5.58;89.92
52735;BME280;38631;47.572;10.704;2023-02-18T03:28:47;93363.97;;;5.60;90.72
52735;BME280;38631;47.572;10.704;2023-02-18T03:31:17;93359.50;;;5.66;90.77
52735;BME280;38631;47.572;10.704;2023-02-18T03:33:49;93374.72;;;5.54;92.15
52735;BME280;38631;47.572;10.704;2023-02-18T03:36:17;93365.25;;;5.58;91.43
52735;BME280;38631;47.572;10.704;2023-02-18T03:41:37;93368.50;;;5.70;90.03
52735;BME280;38631;47.572;10.704;2023-02-18T03:44:05;93370.84;;;5.67;90.27
52735;BME280;38631;47.572;10.704;2023-02-18T03:46:31;93370.31;;;5.65;89.91
52735;BME280;38631;47.572;10.704;2023-02-18T03:48:58;93365.78;;;5.55;89.97
52735;BME280;38631;47.572;10.704;2023-02-18T03:51:24;93363.34;;;5.48;90.01
52735;BME280;38631;47.572;10.704;2023-02-18T03:53:49;93365.06;;;4.73;92.35
52735;BME280;38631;47.572;10.704;2023-02-18T03:56:15;93372.88;;;4.90;93.56
52735;BME280;38631;47.572;10.704;2023-02-18T03:58:40;93366.91;;;5.00;93.20
52735;BME280;38631;47.572;10.704;2023-02-18T04:01:06;93363.03;;;5.07;92.67
52735;BME280;38631;47.572;10.704;2023-02-18T04:03:31;93370.00;;;4.96;93.13
52735;BME280;38631;47.572;10.704;2023-02-18T04:05:57;93362.19;;;4.74;94.34
52735;BME280;38631;47.572;10.704;2023-02-18T04:08:23;93364.88;;;4.80;94.26
52735;BME280;38631;47.572;10.704;2023-02-18T04:10:48;93368.16;;;4.65;94.78
52735;BME280;38631;47.572;10.704;2023-02-18T04:13:14;93358.41;;;4.65;95.61
52735;BME280;38631;47.572;10.704;2023-02-18T04:15:39;93359.94;;;4.88;94.01
52735;BME280;38631;47.572;10.704;2023-02-18T04:18:05;93364.13;;;4.84;93.36
52735;BME280;38631;47.572;10.704;2023-02-18T04:20:30;93359.53;;;4.47;94.84
52735;BME280;38631;47.572;10.704;2023-02-18T04:22:55;93348.34;;;4.57;94.75
52735;BME280;38631;47.572;10.704;2023-02-18T04:25:21;93360.50;;;4.63;94.65
52735;BME280;38631;47.572;10.704;2023-02-18T04:27:46;93356.84;;;4.64;94.83
52735;BME280;38631;47.572;10.704;2023-02-18T04:30:12;93346.88;;;4.71;93.91
52735;BME280;38631;47.572;10.704;2023-02-18T04:32:38;93348.91;;;4.91;93.23
52735;BME280;38631;47.572;10.704;2023-02-18T04:35:04;93353.28;;;5.08;92.28
52735;BME280;38631;47.572;10.704;2023-02-18T04:37:29;93351.75;;;5.12;92.31
52735;BME280;38631;47.572;10.704;2023-02-18T04:39:54;93346.19;;;4.81;93.21
52735;BME280;38631;47.572;10.704;2023-02-18T04:42:20;93359.94;;;4.34;94.43
52735;BME280;38631;47.572;10.704;2023-02-18T04:44:45;93352.00;;;4.56;94.84
52735;BME280;38631;47.572;10.704;2023-02-18T04:47:10;93348.31;;;4.79;93.82
52735;BME280;38631;47.572;10.704;2023-02-18T04:49:36;93363.44;;;4.67;93.37
52735;BME280;38631;47.572;10.704;2023-02-18T04:52:01;93359.09;;;4.55;94.59
52735;BME280;38631;47.572;10.704;2023-02-18T04:54:27;93357.25;;;4.56;94.47
52735;BME280;38631;47.572;10.704;2023-02-18T04:56:52;93356.00;;;4.64;94.80
52735;BME280;38631;47.572;10.704;2023-02-18T04:59:17;93359.84;;;4.78;94.24
52735;BME280;38631;47.572;10.704;2023-02-18T05:01:43;93371.03;;;4.41;95.61
52735;BME280;38631;47.572;10.704;2023-02-18T05:04:08;93370.56;;;4.44;95.13
52735;BME280;38631;47.572;10.704;2023-02-18T05:06:33;93372.25;;;4.55;94.91
52735;BME280;38631;47.572;10.704;2023-02-18T05:08:59;93372.31;;;4.61;93.68
52735;BME280;38631;47.572;10.704;2023-02-18T05:11:24;93373.41;;;3.99;97.31
52735;BME280;38631;47.572;10.704;2023-02-18T05:13:49;93365.53;;;4.43;95.76
52735;BME280;38631;47.572;10.704;2023-02-18T05:16:15;93362.28;;;4.14;95.48
52735;BME280;38631;47.572;10.704;2023-02-18T05:18:40;93361.81;;;4.17;95.46
52735;BME280;38631;47.572;10.704;2023-02-18T05:21:06;93364.50;;;4.00;96.18
52735;BME280;38631;47.572;10.704;2023-02-18T05:23:32;93360.13;;;3.66;98.04
52735;BME280;38631;47.572;10.704;2023-02-18T05:25:58;93344.16;;;4.12;96.08
52735;BME280;38631;47.572;10.704;2023-02-18T05:28:23;93343.72;;;4.20;94.91
52735;BME280;38631;47.572;10.704;2023-02-18T05:30:49;93337.50;;;4.04;94.94
52735;BME280;38631;47.572;10.704;2023-02-18T05:33:14;93343.47;;;4.22;94.67
52735;BME280;38631;47.572;10.704;2023-02-18T05:35:39;93347.00;;;4.10;93.80
52735;BME280;38631;47.572;10.704;2023-02-18T05:38:05;93339.56;;;4.24;93.43
52735;BME280;38631;47.572;10.704;2023-02-18T05:40:30;93343.25;;;4.01;94.06
52735;BME280;38631;47.572;10.704;2023-02-18T05:42:55;93351.13;;;3.62;96.25
52735;BME280;38631;47.572;10.704;2023-02-18T05:45:21;93350.19;;;3.18;97.23
52735;BME280;38631;47.572;10.704;2023-02-18T05:47:46;93336.22;;;3.29;97.78
52735;BME280;38631;47.572;10.704;2023-02-18T05:50:12;93346.69;;;3.46;96.05
52735;BME280;38631;47.572;10.704;2023-02-18T05:52:37;93349.16;;;3.36;96.89
52735;BME280;38631;47.572;10.704;2023-02-18T05:55:02;93340.81;;;3.05;97.49
52735;BME280;38631;47.572;10.704;2023-02-18T05:57:28;93345.59;;;3.42;96.91
52735;BME280;38631;47.572;10.704;2023-02-18T05:59:53;93336.44;;;2.94;96.74
52735;BME280;38631;47.572;10.704;2023-02-18T06:02:19;93343.69;;;3.20;96.93
52735;BME280;38631;47.572;10.704;2023-02-18T06:04:44;93330.56;;;3.03;97.72
52735;BME280;38631;47.572;10.704;2023-02-18T06:07:09;93351.94;;;3.12;98.34
52735;BME280;38631;47.572;10.704;2023-02-18T06:09:35;93349.34;;;3.29;96.61
52735;BME280;38631;47.572;10.704;2023-02-18T06:12:00;93353.47;;;2.91;96.89
52735;BME280;38631;47.572;10.704;2023-02-18T06:14:26;93368.03;;;2.70;99.61
52735;BME280;38631;47.572;10.704;2023-02-18T06:16:51;93355.53;;;3.23;96.65
52735;BME280;38631;47.572;10.704;2023-02-18T06:19:16;93362.94;;;3.26;95.63
52735;BME280;38631;47.572;10.704;2023-02-18T06:21:42;93350.97;;;2.85;96.57
52735;BME280;38631;47.572;10.704;2023-02-18T06:24:07;93358.00;;;3.13;97.03
52735;BME280;38631;47.572;10.704;2023-02-18T06:26:33;93354.34;;;2.97;97.23
52735;BME280;38631;47.572;10.704;2023-02-18T06:28:58;93348.13;;;3.03;98.06
52735;BME280;38631;47.572;10.704;2023-02-18T06:31:24;93349.72;;;2.87;97.67
52735;BME280;38631;47.572;10.704;2023-02-18T06:33:49;93340.03;;;3.05;97.67
52735;BME280;38631;47.572;10.704;2023-02-18T06:36:14;93345.03;;;3.40;97.08
52735;BME280;38631;47.572;10.704;2023-02-18T06:38:42;93348.06;;;3.32;97.06
52735;BME280;38631;47.572;10.704;2023-02-18T06:41:08;93340.16;;;3.49;96.24
52735;BME280;38631;47.572;10.704;2023-02-18T06:43:34;93340.63;;;3.45;97.20
52735;BME280;38631;47.572;10.704;2023-02-18T06:45:59;93337.59;;;2.69;99.41
52735;BME280;38631;47.572;10.704;2023-02-18T06:48:25;93347.50;;;3.13;98.96
52735;BME280;38631;47.572;10.704;2023-02-18T06:50:50;93333.22;;;2.58;100.00
52735;BME280;38631;47.572;10.704;2023-02-18T06:53:15;93344.31;;;2.94;100.00
52735;BME280;38631;47.572;10.704;2023-02-18T06:55:42;93343.75;;;3.42;98.36
52735;BME280;38631;47.572;10.704;2023-02-18T06:58:09;93342.97;;;3.42;98.27
52735;BME280;38631;47.572;10.704;2023-02-18T07:00:35;93343.53;;;3.44;98.73
52735;BME280;38631;47.572;10.704;2023-02-18T07:03:01;93330.00;;;3.18;99.82
52735;BME280;38631;47.572;10.704;2023-02-18T07:05:27;93336.28;;;3.51;98.99
52735;BME280;38631;47.572;10.704;2023-02-18T07:07:52;93328.66;;;3.72;97.75
52735;BME280;38631;47.572;10.704;2023-02-18T07:10:18;93337.97;;;3.79;97.62
52735;BME280;38631;47.572;10.704;2023-02-18T07:12:43;93317.91;;;3.51;98.62
52735;BME280;38631;47.572;10.704;2023-02-18T07:15:09;93338.56;;;3.47;99.96
52735;BME280;38631;47.572;10.704;2023-02-18T07:17:34;93337.56;;;3.71;99.53
52735;BME280;38631;47.572;10.704;2023-02-18T07:19:59;93320.38;;;3.80;99.62
52735;BME280;38631;47.572;10.704;2023-02-18T07:22:25;93325.72;;;3.68;99.80
52735;BME280;38631;47.572;10.704;2023-02-18T07:24:52;93318.34;;;3.87;99.69
52735;BME280;38631;47.572;10.704;2023-02-18T07:27:18;93322.31;;;3.67;100.00
52735;BME280;38631;47.572;10.704;2023-02-18T07:29:44;93323.19;;;3.95;99.54
52735;BME280;38631;47.572;10.704;2023-02-18T07:32:13;93316.81;;;3.69;100.00
52735;BME280;38631;47.572;10.704;2023-02-18T07:34:39;93317.19;;;3.78;99.83
52735;BME280;38631;47.572;10.704;2023-02-18T07:37:05;93317.56;;;3.86;100.00
52735;BME280;38631;47.572;10.704;2023-02-18T07:39:43;93317.06;;;3.67;100.00
52735;BME280;38631;47.572;10.704;2023-02-18T07:42:10;93315.97;;;4.07;99.29
52735;BME280;38631;47.572;10.704;2023-02-18T07:44:36;93311.22;;;4.04;99.94
52735;BME280;38631;47.572;10.704;2023-02-18T07:47:03;93314.31;;;4.23;99.22
52735;BME280;38631;47.572;10.704;2023-02-18T07:49:28;93314.19;;;4.62;96.90
52735;BME280;38631;47.572;10.704;2023-02-18T07:51:54;93328.78;;;4.75;96.98
52735;BME280;38631;47.572;10.704;2023-02-18T07:54:19;93324.81;;;5.00;96.38
52735;BME280;38631;47.572;10.704;2023-02-18T07:56:45;93319.53;;;5.00;97.16
52735;BME280;38631;47.572;10.704;2023-02-18T07:59:11;93318.34;;;5.17;95.88
52735;BME280;38631;47.572;10.704;2023-02-18T08:01:37;93327.16;;;5.33;94.87
52735;BME280;38631;47.572;10.704;2023-02-18T08:04:02;93326.16;;;5.39;96.72
52735;BME280;38631;47.572;10.704;2023-02-18T08:06:32;93321.75;;;5.50;95.20
52735;BME280;38631;47.572;10.704;2023-02-18T08:08:58;93317.13;;;5.68;95.35
52735;BME280;38631;47.572;10.704;2023-02-18T08:11:23;93320.88;;;5.82;94.07
52735;BME280;38631;47.572;10.704;2023-02-18T08:13:48;93321.69;;;5.82;94.00
52735;BME280;38631;47.572;10.704;2023-02-18T08:16:15;93316.44;;;5.88;94.21
52735;BME280;38631;47.572;10.704;2023-02-18T08:18:41;93328.94;;;6.02;93.55
52735;BME280;38631;47.572;10.704;2023-02-18T08:21:06;93318.91;;;5.99;93.88
52735;BME280;38631;47.572;10.704;2023-02-18T08:23:31;93325.59;;;6.22;92.44
52735;BME280;38631;47.572;10.704;2023-02-18T08:25:57;93330.88;;;6.27;92.52
52735;BME280;38631;47.572;10.704;2023-02-18T08:28:23;93332.22;;;6.30;92.60
52735;BME280;38631;47.572;10.704;2023-02-18T08:30:50;93336.97;;;6.33;92.74
52735;BME280;38631;47.572;10.704;2023-02-18T08:33:17;93330.09;;;6.27;93.14
52735;BME280;38631;47.572;10.704;2023-02-18T08:35:43;93329.63;;;6.45;92.81
52735;BME280;38631;47.572;10.704;2023-02-18T08:38:09;93333.63;;;6.68;92.25
52735;BME280;38631;47.572;10.704;2023-02-18T08:40:34;93341.56;;;6.79;92.13
52735;BME280;38631;47.572;10.704;2023-02-18T08:43:00;93334.19;;;6.81;92.08
52735;BME280;38631;47.572;10.704;2023-02-18T08:45:25;93340.00;;;6.88;91.53
52735;BME280;38631;47.572;10.704;2023-02-18T08:47:50;93335.19;;;6.64;92.36
52735;BME280;38631;47.572;10.704;2023-02-18T08:50:16;93326.53;;;6.79;91.73
52735;BME280;38631;47.572;10.704;2023-02-18T08:52:41;93324.72;;;7.00;91.20
52735;BME280;38631;47.572;10.704;2023-02-18T08:55:07;93338.16;;;6.83;91.72
52735;BME280;38631;47.572;10.704;2023-02-18T08:57:32;93324.72;;;7.16;91.24
52735;BME280;38631;47.572;10.704;2023-02-18T08:59:58;93335.28;;;7.05;90.67
52735;BME280;38631;47.572;10.704;2023-02-18T09:02:23;93330.25;;;6.93;90.89
52735;BME280;38631;47.572;10.704;2023-02-18T09:04:48;93324.69;;;7.56;88.92
52735;BME280;38631;47.572;10.704;2023-02-18T09:07:15;93328.91;;;7.73;87.70
52735;BME280;38631;47.572;10.704;2023-02-18T09:09:41;93325.16;;;7.89;87.95
52735;BME280;38631;47.572;10.704;2023-02-18T09:12:07;93322.81;;;7.88;87.04
52735;BME280;38631;47.572;10.704;2023-02-18T09:14:33;93325.59;;;8.27;84.79
52735;BME280;38631;47.572;10.704;2023-02-18T09:16:58;93332.50;;;8.18;84.07
52735;BME280;38631;47.572;10.704;2023-02-18T09:19:24;93320.50;;;8.51;83.49
52735;BME280;38631;47.572;10.704;2023-02-18T09:21:49;93319.09;;;8.64;83.31
52735;BME280;38631;47.572;10.704;2023-02-18T09:24:18;93314.97;;;8.92;82.40
52735;BME280;38631;47.572;10.704;2023-02-18T09:26:44;93309.28;;;9.09;79.97
52735;BME280;38631;47.572;10.704;2023-02-18T09:29:09;93306.81;;;8.83;82.27
52735;BME280;38631;47.572;10.704;2023-02-18T09:31:35;93313.06;;;9.66;78.06
52735;BME280;38631;47.572;10.704;2023-02-18T09:34:02;93301.47;;;9.28;78.78
52735;BME280;38631;47.572;10.704;2023-02-18T09:36:28;93313.06;;;9.03;79.03
52735;BME280;38631;47.572;10.704;2023-02-18T09:38:54;93307.06;;;8.87;79.32
52735;BME280;38631;47.572;10.704;2023-02-18T09:41:42;93299.13;;;8.82;79.08
52735;BME280;38631;47.572;10.704;2023-02-18T09:44:17;93293.03;;;8.86;79.48
52735;BME280;38631;47.572;10.704;2023-02-18T09:49:19;93284.28;;;9.25;79.33
52735;BME280;38631;47.572;10.704;2023-02-18T09:51:45;93280.94;;;9.44;77.68
52735;BME280;38631;47.572;10.704;2023-02-18T09:54:14;93266.28;;;9.51;76.21
52735;BME280;38631;47.572;10.704;2023-02-18T09:56:43;93274.53;;;9.45;77.72
52735;BME280;38631;47.572;10.704;2023-02-18T09:59:19;93271.06;;;9.49;75.76
52735;BME280;38631;47.572;10.704;2023-02-18T10:01:48;93266.22;;;9.27;75.95
52735;BME280;38631;47.572;10.704;2023-02-18T10:04:18;93266.44;;;9.60;77.54
52735;BME280;38631;47.572;10.704;2023-02-18T10:06:49;93256.34;;;9.62;77.98
52735;BME280;38631;47.572;10.704;2023-02-18T10:09:29;93271.94;;;9.69;76.04
52735;BME280;38631;47.572;10.704;2023-02-18T10:12:00;93269.44;;;9.78;75.04
52735;BME280;38631;47.572;10.704;2023-02-18T10:14:27;93269.72;;;9.52;75.44
52735;BME280;38631;47.572;10.704;2023-02-18T10:16:54;93265.91;;;9.63;75.12
52735;BME280;38631;47.572;10.704;2023-02-18T10:19:33;93268.13;;;9.51;75.31
52735;BME280;38631;47.572;10.704;2023-02-18T10:22:01;93256.03;;;9.93;75.52
52735;BME280;38631;47.572;10.704;2023-02-18T10:24:34;93268.06;;;10.09;73.70
52735;BME280;38631;47.572;10.704;2023-02-18T10:27:04;93262.81;;;10.04;73.51
52735;BME280;38631;47.572;10.704;2023-02-18T10:29:30;93260.44;;;9.79;72.82
52735;BME280;38631;47.572;10.704;2023-02-18T10:32:20;93266.34;;;9.70;73.40
52735;BME280;38631;47.572;10.704;2023-02-18T10:42:29;93256.81;;;9.69;72.80
52735;BME280;38631;47.572;10.704;2023-02-18T10:48:46;93257.91;;;9.68;74.41
52735;BME280;38631;47.572;10.704;2023-02-18T10:51:22;93245.13;;;9.70;75.25
52735;BME280;38631;47.572;10.704;2023-02-18T10:53:50;93245.75;;;9.62;76.97
52735;BME280;38631;47.572;10.704;2023-02-18T10:56:41;93246.47;;;9.68;77.23
52735;BME280;38631;47.572;10.704;2023-02-18T10:59:18;93240.44;;;9.62;78.34
52735;BME280;38631;47.572;10.704;2023-02-18T11:01:44;93233.97;;;9.73;77.15
52735;BME280;38631;47.572;10.704;2023-02-18T11:04:18;93226.00;;;10.41;76.59
52735;BME280;38631;47.572;10.704;2023-02-18T11:06:52;93227.69;;;10.36;75.78
52735;BME280;38631;47.572;10.704;2023-02-18T11:09:54;93211.94;;;9.97;76.55
52735;BME280;38631;47.572;10.704;2023-02-18T11:12:28;93200.44;;;10.07;77.44
52735;BME280;38631;47.572;10.704;2023-02-18T11:17:35;93190.13;;;10.24;75.70
52735;BME280;38631;47.572;10.704;2023-02-18T11:22:49;93173.56;;;10.32;75.75
52735;BME280;38631;47.572;10.704;2023-02-18T11:25:20;93168.56;;;10.31;75.85
52735;BME280;38631;47.572;10.704;2023-02-18T11:27:57;93180.22;;;10.11;76.87
52735;BME280;38631;47.572;10.704;2023-02-18T11:33:19;93159.41;;;10.18;76.83
52735;BME280;38631;47.572;10.704;2023-02-18T11:35:56;93155.63;;;10.24;76.72
52735;BME280;38631;47.572;10.704;2023-02-18T11:38:32;93148.16;;;10.26;76.75
52735;BME280;38631;47.572;10.704;2023-02-18T11:41:10;93137.13;;;10.71;76.03
52735;BME280;38631;47.572;10.704;2023-02-18T11:43:40;93143.72;;;10.92;75.00
52735;BME280;38631;47.572;10.704;2023-02-18T11:46:14;93131.28;;;10.74;76.04
52735;BME280;38631;47.572;10.704;2023-02-18T11:48:40;93123.47;;;10.45;76.37
52735;BME280;38631;47.572;10.704;2023-02-18T11:51:09;93111.84;;;10.59;76.02
52735;BME280;38631;47.572;10.704;2023-02-18T11:53:38;93110.75;;;10.60;75.89
52735;BME280;38631;47.572;10.704;2023-02-18T11:56:17;93103.97;;;11.01;74.76
52735;BME280;38631;47.572;10.704;2023-02-18T11:58:45;93104.75;;;11.01;72.52
52735;BME280;38631;47.572;10.704;2023-02-18T12:03:55;93088.53;;;11.44;69.51
52735;BME280;38631;47.572;10.704;2023-02-18T12:06:27;93083.22;;;11.44;69.35
52735;BME280;38631;47.572;10.704;2023-02-18T12:09:35;93082.09;;;11.73;68.79
52735;BME280;38631;47.572;10.704;2023-02-18T12:12:10;93079.06;;;12.16;68.69
52735;BME280;38631;47.572;10.704;2023-02-18T12:14:37;93070.53;;;12.42;64.56
52735;BME280;38631;47.572;10.704;2023-02-18T12:28:09;93055.75;;;13.60;47.02
52735;BME280;38631;47.572;10.704;2023-02-18T12:36:35;93060.69;;;14.19;43.63
52735;BME280;38631;47.572;10.704;2023-02-18T12:42:15;93050.50;;;14.30;45.03
52735;BME280;38631;47.572;10.704;2023-02-18T12:45:30;93042.94;;;14.06;43.26
52735;BME280;38631;47.572;10.704;2023-02-18T12:50:48;93051.06;;;13.83;47.70
52735;BME280;38631;47.572;10.704;2023-02-18T12:53:27;93039.47;;;14.14;45.47
52735;BME280;38631;47.572;10.704;2023-02-18T13:07:36;93024.06;;;14.11;42.79
52735;BME280;38631;47.572;10.704;2023-02-18T13:10:25;93042.78;;;14.11;41.67
52735;BME280;38631;47.572;10.704;2023-02-18T13:12:59;93037.91;;;14.48;44.08
52735;BME280;38631;47.572;10.704;2023-02-18T13:18:07;93036.63;;;13.76;43.87
52735;BME280;38631;47.572;10.704;2023-02-18T13:20:50;93037.59;;;13.97;43.22
52735;BME280;38631;47.572;10.704;2023-02-18T13:23:26;93025.00;;;14.07;41.76
52735;BME280;38631;47.572;10.704;2023-02-18T13:25:59;93021.59;;;14.15;43.15
52735;BME280;38631;47.572;10.704;2023-02-18T13:28:34;93022.19;;;14.12;43.26
52735;BME280;38631;47.572;10.704;2023-02-18T13:36:53;92988.75;;;13.79;43.08
52735;BME280;38631;47.572;10.704;2023-02-18T13:39:22;92986.22;;;13.92;42.63
52735;BME280;38631;47.572;10.704;2023-02-18T13:41:50;92990.44;;;13.84;42.34
52735;BME280;38631;47.572;10.704;2023-02-18T13:46:55;92982.31;;;13.80;41.44
52735;BME280;38631;47.572;10.704;2023-02-18T13:49:23;92979.00;;;13.83;42.24
52735;BME280;38631;47.572;10.704;2023-02-18T13:51:54;92978.97;;;13.66;43.19
52735;BME280;38631;47.572;10.704;2023-02-18T13:54:31;92977.72;;;13.55;43.23
52735;BME280;38631;47.572;10.704;2023-02-18T13:57:01;92977.13;;;13.93;42.24
52735;BME280;38631;47.572;10.704;2023-02-18T14:00:19;92977.09;;;13.67;42.65
52735;BME280;38631;47.572;10.704;2023-02-18T14:02:36;92976.94;;;13.89;42.24
52735;BME280;38631;47.572;10.704;2023-02-18T14:05:21;92989.69;;;13.92;41.95
52735;BME280;38631;47.572;10.704;2023-02-18T14:08:03;92971.44;;;14.12;40.92
52735;BME280;38631;47.572;10.704;2023-02-18T14:10:32;92962.69;;;13.85;41.38
52735;BME280;38631;47.572;10.704;2023-02-18T14:18:08;92979.13;;;14.31;39.94
52735;BME280;38631;47.572;10.704;2023-02-18T14:25:54;92974.91;;;14.30;39.70
52735;BME280;38631;47.572;10.704;2023-02-18T14:28:38;92964.72;;;13.79;40.85
52735;BME280;38631;47.572;10.704;2023-02-18T14:31:27;92968.78;;;13.86;41.93
52735;BME280;38631;47.572;10.704;2023-02-18T14:36:33;92984.50;;;13.96;41.34
52735;BME280;38631;47.572;10.704;2023-02-18T14:42:08;92986.84;;;13.89;40.47
52735;BME280;38631;47.572;10.704;2023-02-18T14:49:52;92983.69;;;13.69;40.70
52735;BME280;38631;47.572;10.704;2023-02-18T14:54:54;92986.38;;;13.87;39.56
52735;BME280;38631;47.572;10.704;2023-02-18T14:57:33;92972.84;;;14.09;39.11
52735;BME280;38631;47.572;10.704;2023-02-18T15:00:01;92979.00;;;13.75;39.94
52735;BME280;38631;47.572;10.704;2023-02-18T15:02:28;92969.88;;;13.50;40.59
52735;BME280;38631;47.572;10.704;2023-02-18T15:05:14;92981.03;;;13.87;39.66
52735;BME280;38631;47.572;10.704;2023-02-18T15:07:40;92974.16;;;13.77;38.54
52735;BME280;38631;47.572;10.704;2023-02-18T15:10:13;92983.56;;;13.74;39.37
52735;BME280;38631;47.572;10.704;2023-02-18T15:12:39;92967.19;;;13.58;40.14
52735;BME280;38631;47.572;10.704;2023-02-18T15:15:05;92978.84;;;13.97;38.78
52735;BME280;38631;47.572;10.704;2023-02-18T15:17:30;92974.28;;;13.72;39.93
52735;BME280;38631;47.572;10.704;2023-02-18T15:19:58;92976.91;;;13.46;39.50